createdAt,value
2022-11-22T00:01:01.745Z,-0.30
2022-11-22T00:03:29.417Z,-0.30
2022-11-22T00:05:57.118Z,-0.10
2022-11-22T00:08:24.818Z,-0.20
2022-11-22T00:10:52.556Z,-0.20
2022-11-22T00:13:21.152Z,-0.30
2022-11-22T00:15:59.949Z,-0.20
2022-11-22T00:18:27.585Z,-0.30
2022-11-22T00:20:55.178Z,0.00
2022-11-22T00:23:23.023Z,0.10
2022-11-22T00:25:50.953Z,0.20
2022-11-22T00:28:18.664Z,0.40
2022-11-22T00:30:48.309Z,0.00
2022-11-22T00:33:20.081Z,0.00
2022-11-22T00:35:47.782Z,0.00
2022-11-22T00:38:15.432Z,-0.10
2022-11-22T00:40:43.698Z,0.00
2022-11-22T00:43:11.384Z,0.00
2022-11-22T00:45:41.012Z,0.10
2022-11-22T00:48:08.708Z,0.10
2022-11-22T00:50:37.764Z,0.00
2022-11-22T00:53:05.534Z,0.10
2022-11-22T00:55:33.248Z,0.00
2022-11-22T00:58:01.119Z,0.00
2022-11-22T01:00:28.775Z,0.10
2022-11-22T01:02:56.544Z,0.10
2022-11-22T01:05:24.324Z,0.30
2022-11-22T01:07:54.548Z,0.00
2022-11-22T01:10:22.432Z,0.10
2022-11-22T01:12:50.094Z,0.20
2022-11-22T01:15:34.285Z,0.00
2022-11-22T01:18:02.015Z,0.00
2022-11-22T01:20:30.844Z,0.20
2022-11-22T01:22:59.829Z,0.00
2022-11-22T01:25:27.475Z,0.50
2022-11-22T01:27:55.251Z,0.00
2022-11-22T01:30:22.986Z,-0.10
2022-11-22T01:32:50.678Z,0.00
2022-11-22T01:35:18.450Z,0.10
2022-11-22T01:37:46.076Z,0.10
2022-11-22T01:40:15.528Z,0.10
2022-11-22T01:42:44.022Z,0.10
2022-11-22T01:45:30.461Z,0.00
2022-11-22T01:47:58.461Z,-0.10
2022-11-22T01:50:26.631Z,0.10
2022-11-22T01:52:55.508Z,0.30
2022-11-22T01:55:24.752Z,0.00
2022-11-22T01:57:52.540Z,0.10
2022-11-22T02:00:20.297Z,0.10
2022-11-22T02:02:51.731Z,0.20
2022-11-22T02:05:20.305Z,0.40
2022-11-22T02:07:50.731Z,0.20
2022-11-22T02:10:20.929Z,0.00
2022-11-22T02:12:51.621Z,0.00
2022-11-22T02:18:00.860Z,0.20
2022-11-22T02:20:28.481Z,0.20
2022-11-22T02:22:57.025Z,0.20
2022-11-22T02:25:31.434Z,0.20
2022-11-22T02:28:00.487Z,0.10
2022-11-22T02:30:28.138Z,0.20
2022-11-22T02:32:55.759Z,0.10
2022-11-22T02:35:24.637Z,0.20
2022-11-22T02:37:53.298Z,0.30
2022-11-22T02:40:21.681Z,0.60
2022-11-22T02:42:49.794Z,0.40
2022-11-22T02:45:19.022Z,0.20
2022-11-22T02:47:46.670Z,0.40
2022-11-22T02:50:14.565Z,0.60
2022-11-22T02:52:42.343Z,0.40
2022-11-22T02:55:10.123Z,0.60
2022-11-22T02:57:37.812Z,0.30
2022-11-22T03:00:06.119Z,0.20
2022-11-22T03:02:35.167Z,0.30
2022-11-22T03:05:02.794Z,0.50
2022-11-22T03:07:33.403Z,0.30
2022-11-22T03:10:01.101Z,0.30
2022-11-22T03:12:28.752Z,0.10
2022-11-22T03:14:56.345Z,0.20
2022-11-22T03:17:24.066Z,0.30
2022-11-22T03:19:53.130Z,0.20
2022-11-22T03:22:20.793Z,0.20
2022-11-22T03:24:48.426Z,0.40
2022-11-22T03:27:16.076Z,0.40
2022-11-22T03:29:43.711Z,0.20
2022-11-22T03:32:11.417Z,0.30
2022-11-22T03:34:39.047Z,0.40
2022-11-22T03:37:08.113Z,0.40
2022-11-22T03:39:35.823Z,0.30
2022-11-22T03:42:03.507Z,0.50
2022-11-22T03:44:31.119Z,0.30
2022-11-22T03:46:58.849Z,0.70
2022-11-22T03:49:26.543Z,0.30
2022-11-22T03:51:54.204Z,0.50
2022-11-22T03:54:23.209Z,0.20
2022-11-22T03:56:50.892Z,0.30
2022-11-22T03:59:18.645Z,0.40
2022-11-22T04:01:46.397Z,0.40
2022-11-22T04:04:14.130Z,0.60
2022-11-22T04:06:43.352Z,0.50
2022-11-22T04:09:11.099Z,0.30
2022-11-22T04:11:40.127Z,0.40
2022-11-22T04:14:24.339Z,0.30
2022-11-22T04:16:52.069Z,0.30
2022-11-22T04:19:19.682Z,0.10
2022-11-22T04:21:46.423Z,0.30
2022-11-22T04:24:31.638Z,0.50
2022-11-22T04:27:00.633Z,0.50
2022-11-22T04:29:28.909Z,0.40
2022-11-22T04:32:14.625Z,0.50
2022-11-22T04:34:42.274Z,0.40
2022-11-22T04:37:09.875Z,0.50
2022-11-22T04:39:37.605Z,0.70
2022-11-22T04:42:20.672Z,0.50
2022-11-22T04:44:48.469Z,0.60
2022-11-22T04:47:38.710Z,0.50
2022-11-22T04:50:29.052Z,0.60
2022-11-22T04:52:56.236Z,0.50
2022-11-22T04:55:24.266Z,0.80
2022-11-22T04:57:59.157Z,0.70
2022-11-22T05:00:28.361Z,0.80
2022-11-22T05:02:58.317Z,0.80
2022-11-22T05:05:26.395Z,0.70
2022-11-22T05:07:57.165Z,0.80
2022-11-22T05:10:27.104Z,0.90
2022-11-22T05:12:56.735Z,0.80
2022-11-22T05:15:24.402Z,0.80
2022-11-22T05:17:52.132Z,0.90
2022-11-22T05:20:19.907Z,1.10
2022-11-22T05:23:05.382Z,1.00
2022-11-22T05:25:34.085Z,0.80
2022-11-22T05:28:03.158Z,0.80
2022-11-22T05:30:30.907Z,1.00
2022-11-22T05:32:58.671Z,1.30
2022-11-22T05:35:26.375Z,1.30
2022-11-22T05:37:54.012Z,1.10
2022-11-22T05:40:32.127Z,0.90
2022-11-22T05:43:04.707Z,0.60
2022-11-22T05:45:36.433Z,0.90
2022-11-22T05:48:04.101Z,1.20
2022-11-22T05:50:31.760Z,1.20
2022-11-22T05:53:01.411Z,1.30
2022-11-22T05:55:29.136Z,1.20
2022-11-22T05:57:56.914Z,1.10
2022-11-22T06:00:24.605Z,1.00
2022-11-22T06:02:53.659Z,1.30
2022-11-22T06:05:21.316Z,1.20
2022-11-22T06:07:49.007Z,1.20
2022-11-22T06:10:17.124Z,1.40
2022-11-22T06:12:44.766Z,0.90
2022-11-22T06:15:12.446Z,1.30
2022-11-22T06:17:40.214Z,1.30
2022-11-22T06:20:10.359Z,1.10
2022-11-22T06:22:38.090Z,1.20
2022-11-22T06:25:06.202Z,1.30
2022-11-22T06:27:33.905Z,1.10
2022-11-22T06:30:01.665Z,1.30
2022-11-22T06:32:29.374Z,1.10
2022-11-22T06:34:57.012Z,1.20
2022-11-22T06:37:25.928Z,1.20
2022-11-22T06:39:53.524Z,1.50
2022-11-22T06:42:21.282Z,1.40
2022-11-22T06:44:48.955Z,1.30
2022-11-22T06:47:17.471Z,1.30
2022-11-22T06:49:45.260Z,1.20
2022-11-22T06:52:12.832Z,1.10
2022-11-22T06:54:41.747Z,1.40
2022-11-22T06:57:09.493Z,1.30
2022-11-22T06:59:37.627Z,1.30
2022-11-22T07:02:06.818Z,1.40
2022-11-22T07:04:34.731Z,1.40
2022-11-22T07:07:04.491Z,1.50
2022-11-22T07:09:32.527Z,1.40
2022-11-22T07:12:01.822Z,1.20
2022-11-22T07:14:29.566Z,1.40
2022-11-22T07:16:57.223Z,1.40
2022-11-22T07:19:24.894Z,1.50
2022-11-22T07:21:52.463Z,1.60
2022-11-22T07:24:20.146Z,1.40
2022-11-22T07:26:51.517Z,1.50
2022-11-22T07:29:20.588Z,1.70
2022-11-22T07:31:48.143Z,1.70
2022-11-22T07:34:15.769Z,1.40
2022-11-22T07:36:43.468Z,1.20
2022-11-22T07:39:12.129Z,1.20
2022-11-22T07:41:39.743Z,1.40
2022-11-22T07:44:07.336Z,1.20
2022-11-22T07:46:36.348Z,1.40
2022-11-22T07:49:04.149Z,1.60
2022-11-22T07:51:31.809Z,1.40
2022-11-22T07:53:59.432Z,1.30
2022-11-22T07:56:27.283Z,1.40
2022-11-22T07:58:55.789Z,1.40
2022-11-22T08:01:27.873Z,1.30
2022-11-22T08:03:57.353Z,1.40
2022-11-22T08:06:25.201Z,1.50
2022-11-22T08:08:57.043Z,1.50
2022-11-22T08:11:35.804Z,1.80
2022-11-22T08:14:04.859Z,1.30
2022-11-22T08:16:32.620Z,1.50
2022-11-22T08:19:01.599Z,1.60
2022-11-22T08:21:29.300Z,1.60
2022-11-22T08:23:59.322Z,1.80
2022-11-22T08:26:27.249Z,1.50
2022-11-22T08:28:55.003Z,1.60
2022-11-22T08:31:22.654Z,1.80
2022-11-22T08:33:53.764Z,1.60
2022-11-22T08:36:23.113Z,1.60
2022-11-22T08:38:50.818Z,1.70
2022-11-22T08:41:18.962Z,1.60
2022-11-22T08:44:03.957Z,1.70
2022-11-22T08:46:31.608Z,1.70
2022-11-22T08:48:59.324Z,1.70
2022-11-22T08:51:28.484Z,1.70
2022-11-22T08:53:56.216Z,1.60
2022-11-22T08:56:24.075Z,1.70
2022-11-22T08:58:52.018Z,1.60
2022-11-22T09:01:21.241Z,1.60
2022-11-22T09:03:49.390Z,1.60
2022-11-22T09:11:58.292Z,1.80
2022-11-22T09:14:26.197Z,1.80
2022-11-22T09:16:53.798Z,1.80
2022-11-22T09:19:21.428Z,1.90
2022-11-22T09:21:49.132Z,1.80
2022-11-22T09:24:18.522Z,1.90
2022-11-22T09:26:53.141Z,2.00
2022-11-22T09:29:20.878Z,2.00
2022-11-22T09:31:49.310Z,1.90
2022-11-22T09:34:16.882Z,2.00
2022-11-22T09:36:44.478Z,1.90
2022-11-22T09:39:12.425Z,1.90
2022-11-22T09:41:48.060Z,2.00
2022-11-22T09:44:19.278Z,1.90
2022-11-22T09:46:50.948Z,2.10
2022-11-22T09:49:36.533Z,2.00
2022-11-22T09:52:07.859Z,2.00
2022-11-22T09:54:40.209Z,2.10
2022-11-22T09:57:14.846Z,2.10
2022-11-22T09:59:45.381Z,2.30
2022-11-22T10:02:19.350Z,2.20
2022-11-22T10:04:50.271Z,2.20
2022-11-22T10:07:20.223Z,2.20
2022-11-22T10:09:51.601Z,2.40
2022-11-22T10:12:24.436Z,2.20
2022-11-22T10:14:58.443Z,2.30
2022-11-22T10:17:33.772Z,2.30
2022-11-22T10:20:05.998Z,2.40
2022-11-22T10:22:34.632Z,2.40
2022-11-22T10:25:14.268Z,2.40
2022-11-22T10:27:45.889Z,2.70
2022-11-22T10:30:15.446Z,2.70
2022-11-22T10:32:48.744Z,2.40
2022-11-22T10:35:32.768Z,2.40
2022-11-22T10:38:03.932Z,2.50
2022-11-22T10:40:36.190Z,2.50
2022-11-22T10:43:15.847Z,2.60
2022-11-22T10:45:45.062Z,2.50
2022-11-22T10:48:17.818Z,2.40
2022-11-22T10:50:54.163Z,2.50
2022-11-22T10:53:28.685Z,2.50
2022-11-22T10:55:59.730Z,2.50
2022-11-22T10:58:32.829Z,2.50
2022-11-22T11:01:07.047Z,2.60
2022-11-22T11:03:36.107Z,2.70
2022-11-22T11:06:37.930Z,2.70
2022-11-22T11:11:47.625Z,2.60
2022-11-22T11:14:24.441Z,2.50
2022-11-22T11:16:52.436Z,2.70
2022-11-22T11:19:24.505Z,2.70
2022-11-22T11:21:56.523Z,2.80
2022-11-22T11:24:24.204Z,2.80
2022-11-22T11:26:53.893Z,2.80
2022-11-22T11:29:37.252Z,2.80
2022-11-22T11:32:08.937Z,2.70
2022-11-22T11:34:39.964Z,2.90
2022-11-22T11:37:11.262Z,3.10
2022-11-22T11:39:44.533Z,3.00
2022-11-22T11:42:25.622Z,3.00
2022-11-22T11:44:57.741Z,3.00
2022-11-22T11:47:33.054Z,3.10
2022-11-22T11:50:01.075Z,3.00
2022-11-22T11:52:38.533Z,3.10
2022-11-22T11:55:17.336Z,3.20
2022-11-22T11:57:45.820Z,3.30
2022-11-22T12:00:24.893Z,3.60
2022-11-22T12:03:02.071Z,3.50
2022-11-22T12:05:33.290Z,3.40
2022-11-22T12:08:04.142Z,3.50
2022-11-22T12:10:39.953Z,3.40
2022-11-22T12:13:13.005Z,3.40
2022-11-22T12:15:48.240Z,3.40
2022-11-22T12:18:27.603Z,3.40
2022-11-22T12:21:02.757Z,3.50
2022-11-22T12:23:33.968Z,3.70
2022-11-22T12:26:01.744Z,3.40
2022-11-22T12:28:37.008Z,3.50
2022-11-22T12:31:14.949Z,3.40
2022-11-22T12:33:45.490Z,3.00
2022-11-22T12:36:18.525Z,3.00
2022-11-22T12:38:56.940Z,3.30
2022-11-22T12:41:30.636Z,3.10
2022-11-22T12:44:00.839Z,3.50
2022-11-22T12:46:39.552Z,3.40
2022-11-22T12:49:15.091Z,3.60
2022-11-22T12:51:45.643Z,3.60
2022-11-22T12:54:14.591Z,3.60
2022-11-22T12:56:45.242Z,3.70
2022-11-22T12:59:19.408Z,3.50
2022-11-22T13:01:52.434Z,3.80
2022-11-22T13:04:23.565Z,3.40
2022-11-22T13:06:59.046Z,3.40
2022-11-22T13:09:32.140Z,3.40
2022-11-22T13:12:01.470Z,3.30
2022-11-22T13:14:32.930Z,3.20
2022-11-22T13:17:10.049Z,3.30
2022-11-22T13:19:47.039Z,3.30
2022-11-22T13:22:41.840Z,3.20
2022-11-22T13:25:32.953Z,3.40
2022-11-22T13:28:06.856Z,3.40
2022-11-22T13:30:39.382Z,3.60
2022-11-22T13:33:29.510Z,3.40
2022-11-22T13:36:12.178Z,3.40
2022-11-22T13:38:45.867Z,3.30
2022-11-22T13:41:27.129Z,3.40
2022-11-22T13:44:05.470Z,3.70
2022-11-22T13:46:57.459Z,3.50
2022-11-22T13:49:48.253Z,3.50
2022-11-22T13:52:55.940Z,3.50
2022-11-22T13:55:28.613Z,3.60
2022-11-22T13:58:01.867Z,3.50
2022-11-22T14:00:57.895Z,3.50
2022-11-22T14:03:41.165Z,3.50
2022-11-22T14:06:25.179Z,3.50
2022-11-22T14:09:19.942Z,3.60
2022-11-22T14:12:12.108Z,3.60
2022-11-22T14:14:49.847Z,3.70
2022-11-22T14:17:27.724Z,3.60
2022-11-22T14:20:09.280Z,3.60
2022-11-22T14:22:50.537Z,3.50
2022-11-22T14:25:35.264Z,3.60
2022-11-22T14:28:11.114Z,3.70
2022-11-22T14:30:42.273Z,3.60
2022-11-22T14:33:15.721Z,3.40
2022-11-22T14:36:08.168Z,3.40
2022-11-22T14:38:42.874Z,3.50
2022-11-22T14:41:33.250Z,3.70
2022-11-22T14:44:01.791Z,3.40
2022-11-22T14:46:56.774Z,3.50
2022-11-22T14:49:37.279Z,3.50
2022-11-22T14:52:07.727Z,3.40
2022-11-22T14:54:46.656Z,3.30
2022-11-22T14:57:21.983Z,3.30
2022-11-22T15:00:05.853Z,3.40
2022-11-22T15:02:59.969Z,3.40
2022-11-22T15:09:10.052Z,3.20
2022-11-22T15:09:14.437Z,3.40
2022-11-22T15:11:19.759Z,3.20
2022-11-22T15:13:52.707Z,3.50
2022-11-22T15:59:40.450Z,3.20
2022-11-22T16:02:15.985Z,3.10
2022-11-22T16:04:47.964Z,3.10
2022-11-22T16:07:24.412Z,3.30
2022-11-22T16:09:52.280Z,3.00
2022-11-22T16:12:31.861Z,2.90
2022-11-22T16:15:22.447Z,3.00
2022-11-22T16:17:59.070Z,3.10
2022-11-22T16:20:29.571Z,3.10
2022-11-22T16:23:21.826Z,3.10
2022-11-22T16:25:51.579Z,3.10
2022-11-22T16:28:26.736Z,3.10
2022-11-22T16:30:54.930Z,3.10
2022-11-22T16:33:24.304Z,2.90
2022-11-22T16:35:56.033Z,2.90
2022-11-22T16:38:24.375Z,3.00
2022-11-22T16:40:54.703Z,2.90
2022-11-22T16:43:25.764Z,2.90
2022-11-22T16:45:53.452Z,2.90
2022-11-22T16:48:31.840Z,2.90
2022-11-22T16:51:03.396Z,3.10
2022-11-22T16:53:39.209Z,2.90
2022-11-22T16:56:07.514Z,2.90
2022-11-22T16:58:36.912Z,2.90
2022-11-22T17:01:04.679Z,2.80
2022-11-22T17:03:36.191Z,2.80
2022-11-22T17:06:05.392Z,3.10
2022-11-22T17:08:33.094Z,3.00
2022-11-22T17:11:00.858Z,2.90
2022-11-22T17:13:28.871Z,2.90
2022-11-22T17:15:57.226Z,3.00
2022-11-22T17:18:26.896Z,2.90
2022-11-22T17:20:55.649Z,2.80
2022-11-22T17:23:27.563Z,2.80
2022-11-22T17:25:55.246Z,2.70
2022-11-22T17:28:22.911Z,3.00
2022-11-22T17:30:50.554Z,2.80
2022-11-22T17:33:18.486Z,2.80
2022-11-22T17:35:46.279Z,2.80
2022-11-22T17:38:13.959Z,3.00
2022-11-22T17:40:44.751Z,2.90
2022-11-22T17:43:12.687Z,2.80
2022-11-22T17:45:42.557Z,2.90
2022-11-22T17:48:10.618Z,2.70
2022-11-22T17:50:38.475Z,2.80
2022-11-22T17:53:06.311Z,2.80
2022-11-22T17:55:54.736Z,2.80
2022-11-22T17:58:23.386Z,2.70
2022-11-22T18:00:51.139Z,2.70
2022-11-22T18:03:18.956Z,2.70
2022-11-22T18:05:46.889Z,2.60
2022-11-22T18:08:14.623Z,2.70
2022-11-22T18:10:43.520Z,2.60
2022-11-22T18:13:21.248Z,2.40
2022-11-22T18:15:52.835Z,2.40
2022-11-22T18:18:40.709Z,2.30
2022-11-22T18:21:14.092Z,2.30
2022-11-22T18:23:45.141Z,2.30
2022-11-22T18:31:53.434Z,2.30
2022-11-22T18:34:21.545Z,2.10
2022-11-22T18:39:38.737Z,2.10
2022-11-22T18:42:07.744Z,2.00
2022-11-22T18:44:37.582Z,1.90
2022-11-22T18:47:06.793Z,1.90
2022-11-22T18:49:34.894Z,2.20
2022-11-22T18:52:06.676Z,2.00
2022-11-22T18:54:34.616Z,1.80
2022-11-22T18:57:02.404Z,2.00
2022-11-22T18:59:31.267Z,1.70
2022-11-22T19:01:58.862Z,1.90
2022-11-22T19:04:28.045Z,1.70
2022-11-22T19:06:56.198Z,1.90
2022-11-22T19:09:26.255Z,1.70
2022-11-22T19:11:58.365Z,1.60
2022-11-22T19:14:29.112Z,1.70
2022-11-22T19:16:57.085Z,1.60
2022-11-22T19:19:25.085Z,1.80
2022-11-22T19:21:54.168Z,1.70
2022-11-22T19:24:22.937Z,1.90
2022-11-22T19:26:50.916Z,1.60
2022-11-22T19:29:19.009Z,1.70
2022-11-22T19:31:47.028Z,1.70
2022-11-22T19:34:14.648Z,1.60
2022-11-22T19:36:44.013Z,1.60
2022-11-22T19:39:14.184Z,1.90
2022-11-22T19:41:42.634Z,1.60
2022-11-22T19:44:10.410Z,1.80
2022-11-22T19:46:38.820Z,1.50
2022-11-22T19:49:06.817Z,1.50
2022-11-22T19:51:34.903Z,1.50
2022-11-22T19:54:03.672Z,1.70
2022-11-22T19:56:33.525Z,1.50
2022-11-22T19:59:03.238Z,1.50
2022-11-22T20:01:32.139Z,1.40
2022-11-22T20:04:00.895Z,1.30
2022-11-22T20:06:28.794Z,1.50
2022-11-22T20:09:00.721Z,1.40
2022-11-22T20:11:28.400Z,1.30
2022-11-22T20:13:57.562Z,1.30
2022-11-22T20:16:26.228Z,1.40
2022-11-22T20:18:54.635Z,1.40
2022-11-22T20:21:22.905Z,1.40
2022-11-22T20:23:50.730Z,1.40
2022-11-22T20:26:18.527Z,1.70
2022-11-22T20:28:46.769Z,1.60
2022-11-22T20:31:20.148Z,1.40
2022-11-22T20:33:49.921Z,1.40
2022-11-22T20:36:19.300Z,1.30
2022-11-22T20:38:48.801Z,1.30
2022-11-22T20:41:17.254Z,1.30
2022-11-22T20:43:45.111Z,1.30
2022-11-22T20:46:13.763Z,1.30
2022-11-22T20:48:43.344Z,1.30
2022-11-22T20:51:12.551Z,1.30
2022-11-22T20:53:40.542Z,1.40
2022-11-22T20:56:08.710Z,1.60
2022-11-22T20:58:36.405Z,1.40
2022-11-22T21:01:08.206Z,1.60
2022-11-22T21:03:38.533Z,1.30
2022-11-22T21:06:07.794Z,1.30
2022-11-22T21:08:35.430Z,1.50
2022-11-22T21:11:03.863Z,1.40
2022-11-22T21:13:32.122Z,1.10
2022-11-22T21:16:08.850Z,1.40
2022-11-22T21:18:51.317Z,1.40
2022-11-22T21:21:23.062Z,1.40
2022-11-22T21:23:51.355Z,1.60
2022-11-22T21:26:19.392Z,1.40
2022-11-22T21:28:47.108Z,1.40
2022-11-22T21:31:14.903Z,1.30
2022-11-22T21:33:43.182Z,1.30
2022-11-22T21:36:11.072Z,1.30
2022-11-22T21:38:40.200Z,1.30
2022-11-22T21:41:38.348Z,1.40
2022-11-22T21:43:56.815Z,1.50
2022-11-22T21:46:25.081Z,1.30
2022-11-22T21:48:55.584Z,1.20
2022-11-22T21:51:26.048Z,1.30
2022-11-22T21:53:58.516Z,1.20
2022-11-22T21:56:26.348Z,1.20
2022-11-22T21:58:54.003Z,1.20
2022-11-22T22:01:22.055Z,1.30
2022-11-22T22:03:49.871Z,1.40
2022-11-22T22:06:17.576Z,1.20
2022-11-22T22:08:45.253Z,1.50
2022-11-22T22:11:14.344Z,1.30
2022-11-22T22:13:42.052Z,1.30
2022-11-22T22:16:15.567Z,1.40
2022-11-22T22:18:43.610Z,1.50
2022-11-22T22:21:12.063Z,1.60
2022-11-22T22:23:40.596Z,1.70
2022-11-22T22:26:09.277Z,2.00
2022-11-22T22:28:38.862Z,2.10
2022-11-22T22:31:07.449Z,2.20
2022-11-22T22:33:35.529Z,2.10
2022-11-22T22:36:03.738Z,2.30
2022-11-22T22:38:31.435Z,2.30
2022-11-22T22:40:59.875Z,2.30
2022-11-22T22:43:30.087Z,2.30
2022-11-22T22:46:06.426Z,2.30
2022-11-22T22:48:34.562Z,2.50
2022-11-22T22:51:07.942Z,2.30
2022-11-22T22:53:35.852Z,2.30
2022-11-22T22:56:03.500Z,2.20
2022-11-22T22:58:31.160Z,2.30
2022-11-22T23:01:06.058Z,2.30
2022-11-22T23:03:33.957Z,2.30
2022-11-22T23:06:05.282Z,2.40
2022-11-22T23:08:32.978Z,2.40
2022-11-22T23:11:03.125Z,2.40
2022-11-22T23:13:32.053Z,2.40
2022-11-22T23:16:00.179Z,2.50
2022-11-22T23:18:29.611Z,2.40
2022-11-22T23:21:00.424Z,2.60
2022-11-22T23:23:28.126Z,2.60
2022-11-22T23:25:55.726Z,2.60
2022-11-22T23:28:23.486Z,2.90
2022-11-22T23:30:51.182Z,2.70
2022-11-22T23:33:18.920Z,2.70
2022-11-22T23:35:47.894Z,2.70
2022-11-22T23:38:15.531Z,2.70
2022-11-22T23:40:43.261Z,3.00
2022-11-22T23:43:10.869Z,3.00
2022-11-22T23:45:38.545Z,2.90
2022-11-22T23:48:06.323Z,2.90
2022-11-22T23:50:37.307Z,3.00
2022-11-22T23:53:06.653Z,3.00
2022-11-22T23:55:34.336Z,2.90
2022-11-22T23:58:02.056Z,2.90
